KSAA/SAA METAR and TAF weather

Enter ICAO airport designator
Station Type Date Time Source
KSAA METAR 2022/06/25 21:55 UTC NOAA

KSAA 252155Z AUTO 35007G15KT 312V012 10SM BKN085 23/00 A3036 RMK AO2 LTG DSNT S


Station Type Date Time Source
KSAA Decoded METAR 2022/06/25 21:55 UTC NOAA

Station name not available
Jun 25, 2022 - 05:55 PM EDT / 2022.06.25 2155 UTC
Wind: from the N (350 degrees) at 8 MPH (7 KT) gusting to 17 MPH (15 KT) (direction variable):0
Visibility: 10 mile(s):0
Sky conditions: mostly cloudy
Weather: Lightning observed
Temperature: 73 F (23 C)
Dew Point: 32 F (0 C)
Relative Humidity: 21%
Pressure (altimeter): 30.36 in. Hg (1028 hPa)
ob: KSAA 252155Z AUTO 35007G15KT 312V012 10SM BKN085 23/00 A3036 RMK AO2 LTG DSNT S
cycle: 22

Station Type Date Time Source
KSAA TAF UTC NOAA

Error!

Example: see airport list